createdAt,value
2018-03-29T00:01:15.181Z,99849.36
2018-03-29T00:04:22.131Z,99845.16
2018-03-29T00:07:30.461Z,99844.81
2018-03-29T00:10:36.126Z,99845.34
2018-03-29T00:13:39.916Z,99844.31
2018-03-29T00:16:56.791Z,99841.76
2018-03-29T00:20:02.177Z,99839.39
2018-03-29T00:23:07.320Z,99840.30
2018-03-29T00:26:11.535Z,99830.94
2018-03-29T00:29:17.011Z,99833.80
2018-03-29T00:32:26.607Z,99834.95
2018-03-29T00:35:33.538Z,99838.96
2018-03-29T00:38:40.906Z,99835.45
2018-03-29T00:41:46.403Z,99840.16
2018-03-29T00:44:51.058Z,99842.72
2018-03-29T00:47:57.027Z,99840.45
2018-03-29T00:51:04.652Z,99842.30
2018-03-29T00:54:15.607Z,99844.24
2018-03-29T00:57:24.525Z,99844.31
2018-03-29T01:00:38.324Z,99850.81
2018-03-29T01:03:49.364Z,99844.70
2018-03-29T03:20:11.391Z,99897.75
2018-03-29T03:33:57.302Z,99912.64
2018-03-29T03:48:15.954Z,99920.78
2018-03-29T03:58:14.737Z,99934.14
2018-03-29T04:01:18.852Z,99935.09
2018-03-29T04:04:29.459Z,99937.96
2018-03-29T04:07:32.787Z,99950.95
2018-03-29T04:10:36.123Z,99949.20
2018-03-29T04:13:40.214Z,99949.66
2018-03-29T04:20:57.240Z,99949.66
2018-03-29T04:42:16.607Z,99973.13
2018-03-29T04:45:22.034Z,99969.79
2018-03-29T04:48:25.368Z,99981.03
2018-03-29T04:51:28.707Z,99979.58
2018-03-29T04:54:32.808Z,99978.25
2018-03-29T04:57:36.165Z,99984.25
2018-03-29T05:00:39.496Z,99987.01
2018-03-29T05:03:42.837Z,99984.72
2018-03-29T05:06:46.173Z,99986.86
2018-03-29T05:09:49.516Z,99988.27
2018-03-29T05:12:53.595Z,99993.79
2018-03-29T05:15:57.167Z,99997.20
2018-03-29T05:19:00.504Z,100004.61
2018-03-29T05:22:03.827Z,100002.17
2018-03-29T05:25:07.156Z,99997.73
2018-03-29T05:28:10.480Z,100007.65
2018-03-29T05:31:13.829Z,100009.78
2018-03-29T05:34:17.197Z,100017.33
2018-03-29T05:37:20.547Z,100018.05
2018-03-29T05:40:23.917Z,100019.58
2018-03-29T05:43:27.232Z,100025.12
2018-03-29T05:46:30.572Z,100030.55
2018-03-29T06:04:25.065Z,100049.39
2018-03-29T07:05:54.088Z,100114.19
2018-03-29T07:08:57.441Z,100119.78
2018-03-29T07:12:01.529Z,100119.56
2018-03-29T07:15:04.857Z,100122.41
2018-03-29T07:18:08.169Z,100126.18
2018-03-29T07:21:11.520Z,100135.86
2018-03-29T07:24:23.022Z,100128.78
2018-03-29T07:49:33.878Z,100151.40
2018-03-29T08:02:22.871Z,100161.03
2018-03-29T08:38:29.683Z,100206.04
2018-03-29T08:41:47.009Z,100208.16
2018-03-29T08:44:50.589Z,100205.55
2018-03-29T08:47:55.038Z,100212.06
2018-03-29T08:51:00.302Z,100214.82
2018-03-29T08:54:11.292Z,100224.91
2018-03-29T08:57:15.475Z,100229.05
2018-03-29T09:00:19.124Z,100227.59
2018-03-29T09:03:22.657Z,100233.31
2018-03-29T09:06:26.088Z,100241.44
2018-03-29T09:09:29.505Z,100236.64
2018-03-29T09:12:33.683Z,100239.59
2018-03-29T09:15:38.006Z,100235.80
2018-03-29T09:18:41.331Z,100242.55
2018-03-29T09:21:44.645Z,100255.20
2018-03-29T09:24:47.950Z,100251.14
2018-03-29T09:27:51.269Z,100256.31
2018-03-29T09:30:54.578Z,100259.07
2018-03-29T09:33:57.895Z,100266.32
2018-03-29T09:37:01.186Z,100271.66
2018-03-29T09:40:04.519Z,100268.17
2018-03-29T09:43:07.814Z,100272.47
2018-03-29T09:46:11.132Z,100277.99
2018-03-29T09:49:14.452Z,100283.02
2018-03-29T09:52:17.764Z,100286.27
2018-03-29T09:55:21.080Z,100285.74
2018-03-29T09:58:24.371Z,100295.52
2018-03-29T10:01:27.691Z,100291.69
2018-03-29T10:04:30.998Z,100294.91
2018-03-29T10:07:34.329Z,100300.08
2018-03-29T10:10:37.631Z,100297.44
2018-03-29T10:13:40.947Z,100300.56
2018-03-29T10:16:44.246Z,100298.38
2018-03-29T10:19:47.574Z,100300.19
2018-03-29T10:22:50.879Z,100302.18
2018-03-29T10:25:54.202Z,100312.34
2018-03-29T10:28:58.279Z,100311.51
2018-03-29T10:32:01.583Z,100314.32
2018-03-29T10:35:04.897Z,100311.75
2018-03-29T10:38:08.975Z,100319.36
2018-03-29T10:41:12.336Z,100321.50
2018-03-29T10:44:16.387Z,100319.20
2018-03-29T10:47:19.718Z,100326.30
2018-03-29T10:50:23.783Z,100330.30
2018-03-29T10:53:27.097Z,100329.21
2018-03-29T10:56:30.386Z,100340.95
2018-03-29T10:59:33.706Z,100341.41
2018-03-29T11:02:36.998Z,100345.56
2018-03-29T11:05:40.309Z,100349.98
2018-03-29T11:08:43.625Z,100349.52
2018-03-29T11:11:47.707Z,100350.17
2018-03-29T11:14:51.030Z,100355.55
2018-03-29T11:17:55.087Z,100357.34
2018-03-29T11:20:58.398Z,100354.66
2018-03-29T11:24:01.693Z,100351.05
2018-03-29T11:27:05.006Z,100363.25
2018-03-29T11:30:08.302Z,100366.20
2018-03-29T11:33:11.615Z,100365.41
2018-03-29T11:36:15.687Z,100378.42
2018-03-29T11:39:19.002Z,100371.12
2018-03-29T11:42:22.334Z,100381.22
2018-03-29T11:45:26.394Z,100386.05
2018-03-29T11:48:29.701Z,100385.67
2018-03-29T11:51:32.995Z,100384.71
2018-03-29T11:54:36.310Z,100386.14
2018-03-29T11:57:39.602Z,100388.36
2018-03-29T12:00:42.914Z,100390.83
2018-03-29T12:03:46.242Z,100387.48
2018-03-29T12:06:49.558Z,100389.94
2018-03-29T12:09:52.874Z,100392.59
2018-03-29T12:12:56.176Z,100401.61
2018-03-29T12:15:59.508Z,100405.45
2018-03-29T12:19:03.571Z,100400.14
2018-03-29T12:22:06.991Z,100401.98
2018-03-29T12:25:10.290Z,100405.78
2018-03-29T12:28:13.606Z,100396.37
2018-03-29T12:31:17.724Z,100403.81
2018-03-29T12:34:21.013Z,100408.68
2018-03-29T12:37:24.321Z,100415.90
2018-03-29T12:40:28.378Z,100421.19
2018-03-29T12:43:31.690Z,100416.73
2018-03-29T12:46:35.007Z,100422.95
2018-03-29T12:49:38.318Z,100429.44
2018-03-29T12:52:42.388Z,100429.47
2018-03-29T12:55:45.757Z,100429.02
2018-03-29T12:58:49.015Z,100420.39
2018-03-29T13:01:52.330Z,100432.94
2018-03-29T13:04:56.427Z,100437.77
2018-03-29T13:07:59.723Z,100436.94
2018-03-29T13:11:03.043Z,100442.74
2018-03-29T13:14:07.132Z,100437.14
2018-03-29T13:17:10.456Z,100439.70
2018-03-29T13:20:14.529Z,100438.86
2018-03-29T13:23:17.850Z,100441.43
2018-03-29T13:26:21.905Z,100444.41
2018-03-29T13:29:25.220Z,100447.89
2018-03-29T13:32:28.521Z,100453.45
2018-03-29T13:35:31.835Z,100455.56
2018-03-29T13:38:35.132Z,100463.14
2018-03-29T13:41:38.447Z,100464.24
2018-03-29T13:44:42.556Z,100458.56
2018-03-29T13:47:45.854Z,100470.14
2018-03-29T13:50:49.938Z,100472.53
2018-03-29T13:53:53.268Z,100467.64
2018-03-29T13:56:56.559Z,100471.48
2018-03-29T14:00:00.627Z,100472.77
2018-03-29T14:03:03.938Z,100477.87
2018-03-29T14:06:07.255Z,100473.56
2018-03-29T14:09:10.567Z,100480.08
2018-03-29T14:12:14.628Z,100474.53
2018-03-29T14:15:19.218Z,100479.34
2018-03-29T14:18:23.299Z,100478.55
2018-03-29T14:21:26.620Z,100479.35
2018-03-29T14:24:30.693Z,100482.04
2018-03-29T14:27:34.006Z,100491.14
2018-03-29T14:30:37.327Z,100487.67
2018-03-29T14:33:41.387Z,100491.37
2018-03-29T14:36:44.710Z,100492.06
2018-03-29T14:39:48.019Z,100489.88
2018-03-29T14:42:52.110Z,100499.43
2018-03-29T14:45:55.423Z,100490.35
2018-03-29T14:48:58.747Z,100496.45
2018-03-29T14:52:02.841Z,100498.34
2018-03-29T14:55:06.171Z,100499.81
2018-03-29T14:58:10.242Z,100501.03
2018-03-29T15:01:27.061Z,100504.81
2018-03-29T15:04:30.371Z,100509.65
2018-03-29T15:07:33.675Z,100503.91
2018-03-29T15:10:37.763Z,100507.20
2018-03-29T15:13:41.173Z,100509.22
2018-03-29T15:16:45.168Z,100515.85
2018-03-29T15:19:48.463Z,100513.05
2018-03-29T15:22:51.791Z,100510.97
2018-03-29T15:25:55.849Z,100511.89
2018-03-29T15:28:59.165Z,100507.42
2018-03-29T15:32:02.457Z,100517.39
2018-03-29T15:35:05.774Z,100513.89
2018-03-29T15:38:09.079Z,100518.78
2018-03-29T15:41:12.395Z,100522.38
2018-03-29T15:44:16.457Z,100527.86
2018-03-29T15:47:19.771Z,100528.67
2018-03-29T15:50:23.111Z,100526.59
2018-03-29T15:53:26.410Z,100534.75
2018-03-29T15:56:29.719Z,100530.27
2018-03-29T15:59:33.671Z,100534.27
2018-03-29T16:06:37.815Z,100536.45
2018-03-29T16:09:41.360Z,100543.95
2018-03-29T16:12:44.713Z,100547.97
2018-03-29T16:15:48.027Z,100544.84
2018-03-29T16:18:52.421Z,100549.28
2018-03-29T16:21:59.562Z,100553.61
2018-03-29T16:25:06.580Z,100556.33
2018-03-29T16:28:11.228Z,100557.62
2018-03-29T16:31:14.604Z,100568.28
2018-03-29T16:34:17.939Z,100571.28
2018-03-29T16:37:21.249Z,100579.22
2018-03-29T16:40:25.327Z,100580.84
2018-03-29T16:43:28.624Z,100578.30
2018-03-29T16:46:31.934Z,100582.85
2018-03-29T16:49:35.226Z,100585.82
2018-03-29T16:52:38.534Z,100587.84
2018-03-29T16:55:41.831Z,100592.75
2018-03-29T16:58:45.145Z,100594.34
2018-03-29T17:01:49.222Z,100604.69
2018-03-29T17:04:52.526Z,100609.13
2018-03-29T17:07:55.833Z,100611.56
2018-03-29T17:10:59.150Z,100614.99
2018-03-29T17:14:03.235Z,100610.37
2018-03-29T17:17:06.527Z,100623.31
2018-03-29T17:20:09.852Z,100633.06
2018-03-29T17:23:13.914Z,100633.84
2018-03-29T17:26:17.234Z,100639.44
2018-03-29T17:29:20.550Z,100641.66
2018-03-29T17:32:23.868Z,100644.80
2018-03-29T17:35:27.168Z,100646.87
2018-03-29T17:38:30.483Z,100647.48
2018-03-29T17:41:33.811Z,100648.81
2018-03-29T17:44:37.107Z,100653.29
2018-03-29T17:47:40.427Z,100652.27
2018-03-29T17:50:44.495Z,100662.74
2018-03-29T17:53:47.814Z,100662.49
2018-03-29T17:56:51.132Z,100660.27
2018-03-29T17:59:54.439Z,100667.70
2018-03-29T18:02:58.532Z,100671.74
2018-03-29T18:06:01.837Z,100676.76
2018-03-29T18:09:06.531Z,100674.92
2018-03-29T18:12:33.421Z,100679.61
2018-03-29T18:15:50.068Z,100680.53
2018-03-29T18:18:53.696Z,100680.01
2018-03-29T18:22:15.694Z,100681.70
2018-03-29T18:25:19.991Z,100685.12
2018-03-29T18:28:24.054Z,100688.98
2018-03-29T18:31:27.377Z,100686.38
2018-03-29T18:34:30.678Z,100693.16
2018-03-29T18:37:33.998Z,100694.25
2018-03-29T18:40:38.058Z,100696.26
2018-03-29T18:47:20.540Z,100702.33
2018-03-29T18:50:24.612Z,100705.50
2018-03-29T18:53:27.939Z,100707.09
2018-03-29T18:56:31.244Z,100714.89
2018-03-29T18:59:35.325Z,100716.73
2018-03-29T19:02:38.630Z,100719.98
2018-03-29T19:05:41.949Z,100718.98
2018-03-29T19:08:45.297Z,100727.61
2018-03-29T19:11:48.615Z,100733.19
2018-03-29T19:14:51.988Z,100738.33
2018-03-29T19:17:55.288Z,100735.97
2018-03-29T19:20:58.622Z,100742.08
2018-03-29T19:24:01.935Z,100741.16
2018-03-29T19:27:06.026Z,100746.58
2018-03-29T19:30:09.352Z,100745.59
2018-03-29T19:33:12.691Z,100745.86
2018-03-29T19:36:16.033Z,100749.88
2018-03-29T19:39:19.366Z,100742.50
2018-03-29T19:42:23.025Z,100748.61
2018-03-29T19:45:26.364Z,100754.96
2018-03-29T19:48:29.680Z,100758.83
2018-03-29T19:51:33.016Z,100763.69
2018-03-29T19:54:36.366Z,100762.27
2018-03-29T19:57:39.684Z,100769.31
2018-03-29T20:00:43.021Z,100770.66
2018-03-29T20:03:47.138Z,100766.13
2018-03-29T20:06:51.221Z,100770.89
2018-03-29T20:09:54.552Z,100771.05
2018-03-29T20:12:58.645Z,100774.49
2018-03-29T20:16:01.952Z,100776.09
2018-03-29T20:19:06.059Z,100776.17
2018-03-29T20:22:09.368Z,100774.58
2018-03-29T20:25:13.465Z,100783.31
2018-03-29T20:28:16.802Z,100782.55
2018-03-29T20:31:20.095Z,100787.16
2018-03-29T20:34:23.412Z,100791.66
2018-03-29T20:37:26.859Z,100795.02
2018-03-29T20:40:30.197Z,100800.62
2018-03-29T20:43:33.499Z,100802.45
2018-03-29T20:46:36.822Z,100813.95
2018-03-29T20:49:40.152Z,100805.83
2018-03-29T20:52:43.449Z,100807.23
2018-03-29T20:55:46.782Z,100806.66
2018-03-29T20:58:50.081Z,100809.50
2018-03-29T21:01:53.432Z,100805.98
2018-03-29T21:04:56.727Z,100811.25
2018-03-29T21:08:00.058Z,100817.63
2018-03-29T21:11:03.360Z,100813.52
2018-03-29T21:14:06.675Z,100813.75
2018-03-29T21:17:09.979Z,100829.16
2018-03-29T21:20:13.307Z,100829.66
2018-03-29T21:23:16.629Z,100838.19
2018-03-29T21:26:20.691Z,100839.54
2018-03-29T21:29:24.005Z,100844.05
2018-03-29T21:32:27.306Z,100833.25
2018-03-29T21:35:30.634Z,100835.31
2018-03-29T21:38:34.703Z,100835.64
2018-03-29T21:41:38.023Z,100843.03
2018-03-29T21:44:41.342Z,100842.02
2018-03-29T21:47:45.434Z,100840.97
2018-03-29T21:50:48.742Z,100850.12
2018-03-29T21:53:52.847Z,100845.16
2018-03-29T21:56:56.130Z,100848.33
2018-03-29T21:59:59.453Z,100853.09
2018-03-29T22:03:03.546Z,100859.20
2018-03-29T22:06:06.842Z,100861.45
2018-03-29T22:09:10.162Z,100857.08
2018-03-29T22:12:14.246Z,100861.09
2018-03-29T22:15:17.567Z,100862.43
2018-03-29T22:18:21.647Z,100861.45
2018-03-29T22:21:24.970Z,100866.80
2018-03-29T22:24:28.283Z,100865.36
2018-03-29T22:27:32.348Z,100869.64
2018-03-29T22:30:35.666Z,100865.30
2018-03-29T22:33:39.044Z,100871.99
2018-03-29T22:36:42.318Z,100869.64
2018-03-29T22:39:45.619Z,100872.81
2018-03-29T22:42:48.935Z,100868.47
2018-03-29T22:45:52.232Z,100868.98
2018-03-29T22:48:55.558Z,100873.27
2018-03-29T22:51:58.858Z,100868.07
2018-03-29T22:55:02.171Z,100869.67
2018-03-29T22:58:06.266Z,100866.41
2018-03-29T23:01:09.567Z,100866.02
2018-03-29T23:04:13.642Z,100865.06
2018-03-29T23:07:16.950Z,100866.41
2018-03-29T23:10:20.263Z,100860.30
2018-03-29T23:13:23.566Z,100869.18
2018-03-29T23:16:26.888Z,100865.33
2018-03-29T23:19:30.195Z,100875.61
2018-03-29T23:22:33.510Z,100880.87
2018-03-29T23:25:36.818Z,100876.92
2018-03-29T23:28:40.116Z,100879.43
2018-03-29T23:31:43.456Z,100877.08
2018-03-29T23:34:47.515Z,100871.67
2018-03-29T23:37:50.822Z,100864.22
2018-03-29T23:40:54.122Z,100860.86
2018-03-29T23:43:57.438Z,100863.54
2018-03-29T23:47:00.754Z,100871.56
2018-03-29T23:50:04.061Z,100867.62
2018-03-29T23:53:07.377Z,100876.20
2018-03-29T23:56:10.687Z,100881.81
2018-03-29T23:59:13.986Z,100883.44
